LGKZ

Details ICAO LGKZ (KZI)
Name FILIPPOS
Region Greece
Timezone Europe/Athens (UTC+3.0)
Plans Departing 14
Arriving 17
Stats Elevation 2,059 ft / 628 m (AMSL)
Location 40.285151° 21.840143°
Runways 1
Magnetic Variation 4.482° E
Sunrise 2018-05-24 03:11:04 UTC / 2018-05-24 06:11:04 Local
Sunset 2018-05-24 17:50:45 UTC / 2018-05-24 20:50:45 Local
Advertisement - Login to hide

Runways

ID Width Length Bearing (true) Bearing (mag) Surface Threshold Offset Overrun Length
14 98 ft / 30 m 5,980 ft / 1,823 m 143.26° 138.78° Asphalt 594 ft / 181 m 0 ft / 0 m
32 98 ft / 30 m 5,980 ft / 1,823 m 323.27° 318.79° Asphalt 0 ft / 0 m 0 ft / 0 m

Map

Weather


0- 5 10 15 20 25 30 35+ Temperature / ° C

Clouds and Precipitation
Forecast for 2018-05-24 12:00 UTC. Updated an hour ago

Ground ~20,000 ft ~40,000 ft Winds

METAR

LGKZ 241150Z 00000KT 9999 SCT020TCU BKN070 22/14 Q1015

TAF

Not found

Frequencies

Tower 118.20 MHz KOZANI AFIS
Warning: Do not use this data for real-world aviation or navigation. No guarantee of current accuracy is given.